Austin, Pennsylvania
Current Conditions -  °F | °C
As of 10:53 AM on Sunday 23 Nov 2014 (Local Time) from KBFD Reporting Station
Overcast Overcast  
Wind Chill: 38°   Ceiling: 6000
Heat Index: 42°   Visibility: 10mi
Dew Point: 35°   Wind: 6mph
Humidity: 76%   Direction: 200°SSW
Pressure: 30.07"   Gusts: NA
Location:  41.63°N, 78.09°W
Report Text: KBFD 231553Z AUTO 20005KT 10SM OVC060 06/02 A3007 RMK AO2 RAE37 SLP194 P0001 T00560017
Loading
Personal Weather Stations






























Interactive Weather Map New forecast layout! Learn more

10-Day Weather Forecast

Advertisements
Track Severe Weather on mobile